Time,TemperatureF,DewpointF,PressureIn,WindDirection,WindDirectionDegrees,WindSpeedMPH,WindSpeedGustMPH,Humidity,HourlyPrecipIn,Conditions,Clouds,dailyrainin,SoftwareType,DateUTC
2013-04-23 00:01:00,42.0,42.0,30.37,North,0,0.0,0.0,99,0.00,,,0.00,,2013-04-23 07:01:00,
2013-04-23 00:21:00,41.0,41.0,30.35,North,0,0.0,0.0,99,0.00,,,0.00,,2013-04-23 07:21:00,
2013-04-23 00:32:00,42.0,42.0,30.36,North,0,0.0,0.0,99,0.00,,,0.00,,2013-04-23 07:32:00,
2013-04-23 00:41:00,42.0,42.0,30.36,North,0,0.0,0.0,99,0.00,,,0.00,,2013-04-23 07:41:00,
2013-04-23 00:52:00,42.0,42.0,30.36,North,0,0.0,0.0,99,0.00,,,0.00,,2013-04-23 07:52:00,
2013-04-23 01:01:00,42.0,41.0,30.37,North,0,0.0,0.0,98,0.00,,,0.00,,2013-04-23 08:01:00,
2013-04-23 01:21:00,42.0,41.0,30.37,North,0,0.0,0.0,96,0.00,,,0.00,,2013-04-23 08:21:00,
2013-04-23 01:31:00,42.0,41.0,30.37,North,0,0.0,0.0,97,0.00,,,0.00,,2013-04-23 08:31:00,
2013-04-23 01:42:00,42.0,41.0,30.37,North,0,0.0,0.0,97,0.00,,,0.00,,2013-04-23 08:42:00,
2013-04-23 01:52:00,41.0,40.0,30.37,North,0,0.0,0.0,98,0.00,,,0.00,,2013-04-23 08:52:00,
2013-04-23 02:01:00,42.0,41.0,30.36,North,0,0.0,0.0,97,0.00,,,0.00,,2013-04-23 09:01:00,
2013-04-23 02:11:00,42.0,41.0,30.36,North,0,0.0,0.0,97,0.00,,,0.00,,2013-04-23 09:11:00,
2013-04-23 02:21:00,43.0,42.0,30.36,North,0,0.0,0.0,96,0.00,,,0.00,,2013-04-23 09:21:00,
2013-04-23 02:32:00,43.0,42.0,30.35,North,0,0.0,0.0,96,0.00,,,0.00,,2013-04-23 09:32:00,
2013-04-23 02:42:00,43.0,42.0,30.35,North,0,0.0,0.0,96,0.00,,,0.00,,2013-04-23 09:42:00,
2013-04-23 02:52:00,42.0,41.0,30.36,North,0,0.0,0.0,97,0.00,,,0.00,,2013-04-23 09:52:00,
2013-04-23 03:02:00,42.0,41.0,30.35,North,0,0.0,0.0,97,0.00,,,0.00,,2013-04-23 10:02:00,
2013-04-23 03:12:00,42.0,41.0,30.35,North,0,0.0,0.0,97,0.00,,,0.00,,2013-04-23 10:12:00,
2013-04-23 03:22:00,43.0,42.0,30.35,North,0,0.0,0.0,95,0.00,,,0.00,,2013-04-23 10:22:00,
2013-04-23 03:32:00,44.0,42.0,30.35,North,0,0.0,0.0,94,0.00,,,0.00,,2013-04-23 10:32:00,
2013-04-23 03:42:00,44.0,42.0,30.35,North,0,0.0,0.0,94,0.00,,,0.00,,2013-04-23 10:42:00,
2013-04-23 03:52:00,42.0,40.0,30.35,North,0,0.0,0.0,94,0.00,,,0.00,,2013-04-23 10:52:00,
2013-04-23 04:02:00,42.0,41.0,30.34,North,0,0.0,0.0,96,0.00,,,0.00,,2013-04-23 11:02:00,
2013-04-23 04:11:00,40.0,39.0,30.34,North,0,0.0,0.0,97,0.00,,,0.00,,2013-04-23 11:11:00,
2013-04-23 04:21:00,40.0,39.0,30.34,North,0,0.0,0.0,97,0.00,,,0.00,,2013-04-23 11:21:00,
2013-04-23 04:32:00,40.0,39.0,30.33,North,0,0.0,0.0,98,0.00,,,0.00,,2013-04-23 11:32:00,
2013-04-23 04:42:00,40.0,39.0,30.34,North,0,0.0,0.0,98,0.00,,,0.00,,2013-04-23 11:42:00,
2013-04-23 04:52:00,40.0,39.0,30.34,North,0,0.0,0.0,98,0.00,,,0.00,,2013-04-23 11:52:00,
2013-04-23 05:01:00,40.0,39.0,30.34,North,0,0.0,0.0,98,0.00,,,0.00,,2013-04-23 12:01:00,
2013-04-23 05:12:00,40.0,39.0,30.34,North,0,0.0,0.0,98,0.00,,,0.00,,2013-04-23 12:12:00,
2013-04-23 05:22:00,40.0,39.0,30.33,North,0,0.0,0.0,98,0.00,,,0.00,,2013-04-23 12:22:00,
2013-04-23 05:32:00,39.0,38.0,30.33,North,0,0.0,0.0,98,0.00,,,0.00,,2013-04-23 12:32:00,
2013-04-23 05:41:00,39.0,38.0,30.33,North,0,0.0,0.0,98,0.00,,,0.00,,2013-04-23 12:41:00,
2013-04-23 05:52:00,38.0,38.0,30.33,North,0,0.0,0.0,99,0.00,,,0.00,,2013-04-23 12:52:00,
2013-04-23 06:01:00,38.0,38.0,30.33,North,0,0.0,0.0,99,0.00,,,0.00,,2013-04-23 13:01:00,
2013-04-23 06:21:00,38.0,38.0,30.33,North,0,0.0,0.0,99,0.00,,,0.00,,2013-04-23 13:21:00,
2013-04-23 06:31:00,38.0,38.0,30.33,North,0,0.0,0.0,99,0.00,,,0.00,,2013-04-23 13:31:00,
2013-04-23 06:41:00,38.0,38.0,30.33,North,0,0.0,0.0,99,0.00,,,0.00,,2013-04-23 13:41:00,
2013-04-23 06:52:00,37.0,37.0,30.33,North,0,0.0,0.0,99,0.00,,,0.00,,2013-04-23 13:52:00,
2013-04-23 07:01:00,38.0,38.0,30.33,North,0,0.0,0.0,99,0.00,,,0.00,,2013-04-23 14:01:00,
2013-04-23 07:11:00,38.0,38.0,30.33,North,0,0.0,0.0,99,0.00,,,0.00,,2013-04-23 14:11:00,
2013-04-23 07:22:00,37.0,37.0,30.33,North,0,0.0,0.0,100,0.00,,,0.00,,2013-04-23 14:22:00,
2013-04-23 07:31:00,38.0,38.0,30.34,North,0,0.0,0.0,100,0.00,,,0.00,,2013-04-23 14:31:00,
2013-04-23 07:41:00,38.0,38.0,30.34,North,0,0.0,0.0,100,0.00,,,0.00,,2013-04-23 14:41:00,
2013-04-23 07:52:00,39.0,39.0,30.33,North,0,0.0,0.0,100,0.00,,,0.00,,2013-04-23 14:52:00,
2013-04-23 08:01:00,39.0,39.0,30.33,North,0,0.0,0.0,100,0.00,,,0.00,,2013-04-23 15:01:00,
2013-04-23 08:11:00,39.0,39.0,30.33,North,0,0.0,0.0,100,0.00,,,0.00,,2013-04-23 15:11:00,
2013-04-23 08:21:00,41.0,40.0,30.33,North,0,0.0,0.0,98,0.00,,,0.00,,2013-04-23 15:21:00,
2013-04-23 08:32:00,43.0,42.0,30.33,North,0,0.0,0.0,97,0.00,,,0.00,,2013-04-23 15:32:00,
2013-04-23 08:42:00,43.0,42.0,30.33,North,0,0.0,0.0,97,0.00,,,0.00,,2013-04-23 15:42:00,
2013-04-23 08:53:00,44.0,43.0,30.33,North,0,0.0,0.0,96,0.00,,,0.00,,2013-04-23 15:53:00,
2013-04-23 09:02:00,47.0,46.0,30.33,North,0,0.0,0.0,95,0.00,,,0.00,,2013-04-23 16:02:00,
2013-04-23 09:33:00,50.0,47.0,30.32,North,0,0.0,6.0,91,0.00,,,0.00,,2013-04-23 16:33:00,
2013-04-23 09:52:00,50.0,47.0,30.32,NW,309,2.0,11.0,90,0.00,,,0.00,,2013-04-23 16:52:00,
2013-04-23 10:02:00,51.0,48.0,30.32,NW,322,5.0,8.0,88,0.00,,,0.00,,2013-04-23 17:02:00,
2013-04-23 10:11:00,52.0,48.0,30.32,NW,312,3.0,9.0,85,0.00,,,0.00,,2013-04-23 17:11:00,
2013-04-23 10:22:00,52.0,48.0,30.32,NW,312,3.0,9.0,85,0.00,,,0.00,,2013-04-23 17:22:00,
2013-04-23 10:32:00,52.0,46.0,30.32,North,357,0.0,9.0,81,0.00,,,0.00,,2013-04-23 17:32:00,
2013-04-23 10:42:00,52.0,46.0,30.32,North,357,0.0,9.0,81,0.00,,,0.00,,2013-04-23 17:42:00,
2013-04-23 10:53:00,54.0,47.0,30.32,NW,309,4.0,10.0,77,0.00,,,0.00,,2013-04-23 17:53:00,
2013-04-23 11:01:00,52.0,45.0,30.32,North,1,2.0,12.0,76,0.00,,,0.00,,2013-04-23 18:01:00,
2013-04-23 11:12:00,52.0,45.0,30.32,North,1,2.0,12.0,76,0.00,,,0.00,,2013-04-23 18:12:00,
2013-04-23 11:22:00,52.0,45.0,30.32,North,0,0.0,6.0,77,0.00,,,0.00,,2013-04-23 18:22:00,
2013-04-23 11:31:00,52.0,47.0,30.32,North,11,0.0,12.0,82,0.00,,,0.00,,2013-04-23 18:31:00,
2013-04-23 11:42:00,52.0,47.0,30.32,North,11,0.0,12.0,82,0.00,,,0.00,,2013-04-23 18:42:00,
2013-04-23 11:52:00,52.0,47.0,30.32,ENE,60,6.0,11.0,84,0.00,,,0.00,,2013-04-23 18:52:00,
2013-04-23 12:01:00,52.0,48.0,30.32,North,0,0.0,8.0,87,0.00,,,0.00,,2013-04-23 19:01:00,
2013-04-23 12:11:00,52.0,48.0,30.32,North,0,0.0,8.0,87,0.00,,,0.00,,2013-04-23 19:11:00,
2013-04-23 12:21:00,52.0,45.0,30.32,North,0,1.0,11.0,78,0.00,,,0.00,,2013-04-23 19:21:00,
2013-04-23 12:32:00,53.0,45.0,30.32,North,0,0.0,1.0,75,0.00,,,0.00,,2013-04-23 19:32:00,
2013-04-23 12:41:00,53.0,45.0,30.32,North,0,0.0,1.0,75,0.00,,,0.00,,2013-04-23 19:41:00,
2013-04-23 12:52:00,52.0,46.0,30.32,North,357,2.0,11.0,81,0.00,,,0.00,,2013-04-23 19:52:00,
2013-04-23 13:01:00,52.0,46.0,30.32,North,0,0.0,0.0,80,0.00,,,0.00,,2013-04-23 20:01:00,
2013-04-23 13:11:00,52.0,46.0,30.32,North,0,0.0,0.0,80,0.00,,,0.00,,2013-04-23 20:11:00,
2013-04-23 13:21:00,52.0,46.0,30.32,North,357,0.0,6.0,81,0.00,,,0.00,,2013-04-23 20:21:00,
2013-04-23 13:31:00,53.0,45.0,30.30,North,357,0.0,16.0,75,0.00,,,0.00,,2013-04-23 20:31:00,
2013-04-23 13:41:00,53.0,45.0,30.30,North,357,0.0,16.0,75,0.00,,,0.00,,2013-04-23 20:41:00,
2013-04-23 13:52:00,53.0,45.0,30.30,North,357,2.0,12.0,75,0.00,,,0.00,,2013-04-23 20:52:00,
2013-04-23 14:01:00,53.0,46.0,30.30,North,0,0.0,7.0,77,0.00,,,0.00,,2013-04-23 21:01:00,
2013-04-23 14:11:00,53.0,46.0,30.30,North,0,0.0,7.0,77,0.00,,,0.00,,2013-04-23 21:11:00,
2013-04-23 14:21:00,53.0,46.0,30.29,North,0,0.0,15.0,78,0.00,,,0.00,,2013-04-23 21:21:00,
2013-04-23 14:32:00,53.0,46.0,30.29,North,0,0.0,15.0,78,0.00,,,0.00,,2013-04-23 21:32:00,
2013-04-23 14:43:00,53.0,46.0,30.29,North,0,0.0,15.0,78,0.00,,,0.00,,2013-04-23 21:43:00,
2013-04-23 14:52:00,53.0,46.0,30.29,NNE,21,3.0,21.0,77,0.00,,,0.00,,2013-04-23 21:52:00,
2013-04-23 15:02:00,53.0,45.0,30.29,North,0,0.0,18.0,73,0.00,,,0.00,,2013-04-23 22:02:00,
2013-04-23 15:12:00,53.0,45.0,30.29,North,0,0.0,18.0,73,0.00,,,0.00,,2013-04-23 22:12:00,
2013-04-23 15:22:00,53.0,46.0,30.29,North,0,0.0,19.0,77,0.00,,,0.00,,2013-04-23 22:22:00,
2013-04-23 15:32:00,53.0,46.0,30.29,North,357,3.0,18.0,78,0.00,,,0.00,,2013-04-23 22:32:00,
2013-04-23 15:42:00,53.0,46.0,30.29,North,357,3.0,18.0,78,0.00,,,0.00,,2013-04-23 22:42:00,
2013-04-23 15:52:00,52.0,46.0,30.29,NNE,32,8.0,18.0,80,0.00,,,0.00,,2013-04-23 22:52:00,
2013-04-23 16:02:00,52.0,47.0,30.28,North,0,0.0,20.0,83,0.00,,,0.00,,2013-04-23 23:02:00,
2013-04-23 16:12:00,52.0,47.0,30.28,North,0,0.0,20.0,83,0.00,,,0.00,,2013-04-23 23:12:00,
2013-04-23 16:21:00,52.0,47.0,30.28,North,0,0.0,0.0,84,0.00,,,0.00,,2013-04-23 23:21:00,
2013-04-23 16:31:00,52.0,48.0,30.27,North,0,0.0,3.0,86,0.00,,,0.00,,2013-04-23 23:31:00,
2013-04-23 16:41:00,52.0,48.0,30.27,North,0,0.0,3.0,85,0.00,,,0.00,,2013-04-23 23:41:00,
2013-04-23 16:52:00,52.0,48.0,30.27,North,0,0.0,3.0,85,0.00,,,0.00,,2013-04-23 23:52:00,
2013-04-23 17:01:00,52.0,48.0,30.27,North,0,0.0,0.0,86,0.00,,,0.00,,2013-04-24 00:01:00,
2013-04-23 17:11:00,52.0,48.0,30.27,North,0,0.0,0.0,86,0.00,,,0.00,,2013-04-24 00:11:00,
2013-04-23 17:21:00,52.0,49.0,30.27,North,0,0.0,0.0,88,0.00,,,0.00,,2013-04-24 00:21:00,
2013-04-23 17:32:00,52.0,49.0,30.26,North,0,0.0,0.0,89,0.00,,,0.00,,2013-04-24 00:32:00,
2013-04-23 17:41:00,52.0,49.0,30.26,North,0,0.0,0.0,89,0.00,,,0.00,,2013-04-24 00:41:00,
2013-04-23 17:51:00,52.0,49.0,30.26,North,357,0.0,2.0,89,0.00,,,0.00,,2013-04-24 00:51:00,
2013-04-23 18:01:00,51.0,47.0,30.26,North,0,0.0,0.0,86,0.00,,,0.00,,2013-04-24 01:01:00,
2013-04-23 18:11:00,51.0,47.0,30.26,North,0,0.0,0.0,86,0.00,,,0.00,,2013-04-24 01:11:00,
2013-04-23 18:21:00,51.0,47.0,30.26,North,0,0.0,2.0,85,0.00,,,0.00,,2013-04-24 01:21:00,
2013-04-23 18:31:00,51.0,47.0,30.26,North,0,0.0,0.0,87,0.00,,,0.00,,2013-04-24 01:31:00,
2013-04-23 18:42:00,51.0,47.0,30.26,North,0,0.0,0.0,87,0.00,,,0.00,,2013-04-24 01:42:00,
2013-04-23 18:52:00,51.0,48.0,30.25,North,0,0.0,0.0,89,0.00,,,0.00,,2013-04-24 01:52:00,
2013-04-23 19:02:00,51.0,48.0,30.25,North,357,0.0,3.0,91,0.00,,,0.00,,2013-04-24 02:02:00,
2013-04-23 19:11:00,50.0,48.0,30.24,NNE,32,0.0,15.0,93,0.00,,,0.00,,2013-04-24 02:11:00,
2013-04-23 19:22:00,50.0,48.0,30.24,NNE,32,0.0,15.0,93,0.00,,,0.00,,2013-04-24 02:22:00,
2013-04-23 19:31:00,50.0,49.0,30.24,North,357,1.0,17.0,95,0.00,,,0.00,,2013-04-24 02:31:00,
2013-04-23 19:43:00,50.0,49.0,30.24,North,357,1.0,17.0,95,0.00,,,0.00,,2013-04-24 02:43:00,
2013-04-23 19:56:00,49.0,48.0,30.24,ENE,61,0.0,11.0,96,0.00,,,0.00,,2013-04-24 02:56:00,
2013-04-23 20:02:00,49.0,48.0,30.24,North,0,0.0,11.0,97,0.00,,,0.00,,2013-04-24 03:02:00,
2013-04-23 20:43:00,48.0,47.0,30.24,North,0,0.0,6.0,98,0.00,,,0.00,,2013-04-24 03:43:00,
2013-04-23 20:57:00,47.0,47.0,30.25,WSW,247,6.0,12.0,99,0.00,,,0.00,,2013-04-24 03:57:00,
2013-04-23 21:02:00,47.0,47.0,30.25,North,1,0.0,15.0,99,0.00,,,0.00,,2013-04-24 04:02:00,
2013-04-23 21:12:00,47.0,47.0,30.25,North,1,0.0,15.0,99,0.00,,,0.00,,2013-04-24 04:12:00,
2013-04-23 21:22:00,47.0,47.0,30.26,North,352,0.0,11.0,99,0.00,,,0.00,,2013-04-24 04:22:00,
2013-04-23 21:33:00,47.0,47.0,30.26,NNE,28,0.0,9.0,99,0.00,,,0.00,,2013-04-24 04:33:00,
2013-04-23 21:43:00,47.0,47.0,30.26,NNE,28,0.0,9.0,99,0.00,,,0.00,,2013-04-24 04:43:00,
2013-04-23 21:52:00,47.0,47.0,30.27,NE,42,0.0,10.0,99,0.00,,,0.00,,2013-04-24 04:52:00,
2013-04-23 22:02:00,46.0,46.0,30.27,North,0,0.0,7.0,99,0.00,,,0.00,,2013-04-24 05:02:00,
2013-04-23 22:12:00,46.0,46.0,30.27,North,0,0.0,7.0,99,0.00,,,0.00,,2013-04-24 05:12:00,
2013-04-23 22:21:00,46.0,46.0,30.26,North,0,0.0,7.0,99,0.00,,,0.00,,2013-04-24 05:21:00,
2013-04-23 22:32:00,46.0,46.0,30.26,North,0,0.0,0.0,99,0.00,,,0.00,,2013-04-24 05:32:00,
2013-04-23 22:42:00,46.0,46.0,30.26,North,0,0.0,0.0,99,0.00,,,0.00,,2013-04-24 05:42:00,
2013-04-23 22:52:00,45.0,45.0,30.26,North,0,0.0,0.0,99,0.00,,,0.00,,2013-04-24 05:52:00,
2013-04-23 23:02:00,44.0,44.0,30.25,North,0,0.0,0.0,99,0.00,,,0.00,,2013-04-24 06:02:00,
2013-04-23 23:11:00,44.0,44.0,30.25,North,0,0.0,0.0,99,0.00,,,0.00,,2013-04-24 06:11:00,
2013-04-23 23:21:00,44.0,44.0,30.25,North,0,0.0,0.0,100,0.00,,,0.00,,2013-04-24 06:21:00,
2013-04-23 23:32:00,43.0,43.0,30.25,North,0,0.0,0.0,100,0.00,,,0.00,,2013-04-24 06:32:00,
2013-04-23 23:41:00,43.0,43.0,30.25,North,0,0.0,0.0,100,0.00,,,0.00,,2013-04-24 06:41:00,
2013-04-23 23:52:00,42.0,42.0,30.25,North,0,0.0,0.0,100,0.00,,,0.00,,2013-04-24 06:52:00,